createdAt,value
2017-08-11T01:08:38.780Z,90.60
2017-08-11T01:11:44.508Z,90.50
2017-08-11T01:14:59.482Z,90.40
2017-08-11T01:18:03.272Z,90.60
2017-08-11T02:06:03.277Z,90.20
2017-08-11T02:09:07.055Z,90.30
2017-08-11T02:22:34.883Z,90.20
2017-08-11T02:25:38.672Z,90.30
2017-08-11T02:42:25.321Z,90.20
2017-08-11T03:09:50.012Z,90.20
2017-08-11T03:12:53.797Z,90.10
2017-08-11T03:19:32.476Z,89.90
2017-08-11T03:22:36.254Z,90.10
2017-08-11T03:25:50.651Z,90.30
2017-08-11T03:28:54.360Z,90.20
2017-08-11T03:45:57.255Z,90.20
2017-08-11T03:49:20.612Z,90.10
2017-08-11T03:52:27.948Z,90.30
2017-08-11T03:55:32.052Z,90.40
2017-08-11T03:58:35.835Z,90.20
2017-08-11T04:01:49.067Z,90.60
2017-08-11T04:04:52.853Z,90.30
2017-08-11T04:14:48.162Z,90.30
2017-08-11T04:17:51.883Z,90.50
2017-08-11T04:24:43.583Z,90.20
2017-08-11T04:27:59.480Z,90.20
2017-08-11T04:31:03.202Z,90.30
2017-08-11T04:34:23.873Z,90.30
2017-08-11T04:37:27.670Z,90.10
2017-08-11T04:40:48.628Z,90.30
2017-08-11T04:47:37.224Z,90.40
2017-08-11T04:51:00.009Z,90.20
2017-08-11T04:54:03.715Z,90.10
2017-08-11T04:57:13.278Z,90.00
2017-08-11T05:00:17.063Z,90.30
2017-08-11T05:03:32.542Z,89.50
2017-08-11T05:06:36.326Z,90.30
2017-08-11T05:13:23.392Z,89.80
2017-08-11T05:16:27.146Z,89.30
2017-08-11T05:23:09.953Z,90.00
2017-08-11T06:25:16.102Z,90.40
2017-08-11T06:28:31.273Z,90.50
2017-08-11T06:31:36.562Z,90.00
2017-08-11T06:34:54.523Z,90.20
2017-08-11T06:37:58.333Z,90.30
2017-08-11T06:41:03.111Z,90.30
2017-08-11T06:44:06.926Z,89.40
2017-08-11T06:54:14.510Z,90.10
2017-08-11T06:57:18.374Z,90.00
2017-08-11T07:00:22.199Z,90.00
2017-08-11T07:17:37.326Z,88.70
2017-08-11T07:20:42.184Z,87.90
2017-08-11T07:23:45.868Z,87.50
2017-08-11T07:27:04.706Z,87.60
2017-08-11T07:30:08.382Z,88.20
2017-08-11T07:33:12.180Z,87.80
2017-08-11T07:46:39.896Z,87.00
2017-08-11T07:49:43.697Z,87.10
2017-08-11T07:52:51.124Z,87.00
2017-08-11T07:55:54.913Z,86.60
2017-08-11T07:59:14.921Z,87.00
2017-08-11T08:05:46.983Z,87.50
2017-08-11T08:08:50.858Z,87.10
2017-08-11T08:11:54.689Z,87.00
2017-08-11T08:14:58.454Z,87.10
2017-08-11T08:18:02.228Z,86.90
2017-08-11T08:21:06.094Z,86.10
2017-08-11T08:24:09.789Z,86.60
2017-08-11T08:27:13.644Z,85.40
2017-08-11T08:30:17.509Z,85.20
2017-08-11T08:33:21.181Z,84.50
2017-08-11T08:36:25.009Z,84.80
2017-08-11T08:39:28.744Z,83.90
2017-08-11T08:42:32.610Z,84.90
2017-08-11T08:45:36.406Z,83.80
2017-08-11T08:48:40.403Z,82.70
2017-08-11T08:51:44.089Z,84.50
2017-08-11T08:54:47.929Z,84.40
2017-08-11T08:57:51.714Z,82.90
2017-08-11T09:00:55.467Z,84.00
2017-08-11T09:03:59.246Z,83.40
2017-08-11T09:07:03.082Z,83.50
2017-08-11T09:10:08.954Z,83.50
2017-08-11T09:13:13.118Z,84.30
2017-08-11T09:16:16.887Z,83.80
2017-08-11T09:19:20.694Z,82.70
2017-08-11T09:22:24.463Z,82.80
2017-08-11T09:25:39.495Z,82.10
2017-08-11T09:28:54.466Z,82.20
2017-08-11T09:32:09.335Z,81.00
2017-08-11T09:35:24.194Z,82.10
2017-08-11T09:38:28.023Z,82.70
2017-08-11T09:41:31.754Z,81.70
2017-08-11T09:44:35.549Z,83.50
2017-08-11T09:47:39.222Z,82.20
2017-08-11T09:50:43.070Z,82.00
2017-08-11T09:53:46.934Z,81.60
2017-08-11T09:56:50.802Z,82.10
2017-08-11T09:59:54.482Z,82.70
2017-08-11T10:02:58.317Z,81.40
2017-08-11T10:06:02.127Z,78.60
2017-08-11T10:09:05.825Z,80.70
2017-08-11T10:12:09.619Z,77.90
2017-08-11T10:15:13.537Z,77.80
2017-08-11T10:18:17.326Z,79.50
2017-08-11T10:21:21.046Z,79.70
2017-08-11T10:24:24.838Z,80.40
2017-08-11T10:27:28.668Z,79.20
2017-08-11T10:30:32.491Z,80.10
2017-08-11T10:33:36.172Z,78.20
2017-08-11T10:36:40.142Z,79.70
2017-08-11T10:39:43.917Z,78.60
2017-08-11T10:42:47.689Z,80.60
2017-08-11T10:45:51.471Z,81.60
2017-08-11T10:48:55.419Z,79.60
2017-08-11T10:52:00.730Z,79.70
2017-08-11T10:55:04.530Z,80.10
2017-08-11T10:58:08.370Z,79.60
2017-08-11T11:01:12.152Z,79.90
2017-08-11T11:04:15.966Z,79.80
2017-08-11T11:07:19.762Z,79.90
2017-08-11T11:10:23.611Z,80.50
2017-08-11T11:13:27.316Z,81.50
2017-08-11T11:16:31.102Z,80.20
2017-08-11T11:19:35.123Z,80.70
2017-08-11T11:22:38.811Z,80.80
2017-08-11T11:25:42.626Z,80.30
2017-08-11T11:28:46.405Z,81.20
2017-08-11T11:31:50.085Z,80.30
2017-08-11T11:34:53.965Z,80.40
2017-08-11T11:37:57.658Z,80.40
2017-08-11T11:41:02.359Z,80.10
2017-08-11T11:44:06.107Z,80.60
2017-08-11T11:47:09.987Z,80.10
2017-08-11T11:50:13.767Z,80.10
2017-08-11T11:53:17.510Z,80.90
2017-08-11T11:56:21.303Z,81.30
2017-08-11T11:59:25.027Z,82.00
2017-08-11T12:02:29.185Z,83.90
2017-08-11T12:05:35.286Z,83.70
2017-08-11T12:08:40.026Z,83.60
2017-08-11T12:11:43.908Z,83.90
2017-08-11T12:14:48.002Z,84.60
2017-08-11T12:17:51.849Z,84.70
2017-08-11T12:20:55.642Z,86.00
2017-08-11T12:23:59.375Z,84.60
2017-08-11T12:27:03.194Z,82.90
2017-08-11T12:30:07.019Z,86.60
2017-08-11T12:33:10.699Z,85.50
2017-08-11T12:36:14.538Z,83.30
2017-08-11T12:39:18.247Z,84.10
2017-08-11T12:42:22.005Z,83.60
2017-08-11T12:45:25.717Z,85.20
2017-08-11T12:51:57.330Z,85.20
2017-08-11T12:55:01.021Z,84.90
2017-08-11T12:58:04.838Z,86.30
2017-08-11T13:01:08.533Z,86.10
2017-08-11T13:04:12.328Z,83.60
2017-08-11T13:07:16.127Z,84.30
2017-08-11T13:10:19.956Z,82.30
2017-08-11T13:13:23.746Z,83.40
2017-08-11T13:16:27.541Z,84.10
2017-08-11T13:19:31.247Z,84.30
2017-08-11T13:22:35.043Z,83.90
2017-08-11T13:25:38.899Z,83.60
2017-08-11T13:28:43.569Z,83.60
2017-08-11T13:31:47.389Z,83.90
2017-08-11T13:34:52.051Z,83.30
2017-08-11T13:37:55.917Z,83.20
2017-08-11T13:41:00.679Z,83.70
2017-08-11T13:44:04.474Z,83.60
2017-08-11T13:47:08.171Z,84.20
2017-08-11T13:50:11.999Z,84.80
2017-08-11T13:53:15.696Z,83.30
2017-08-11T13:56:19.497Z,84.50
2017-08-11T13:59:41.304Z,84.60
2017-08-11T14:02:45.105Z,83.70
2017-08-11T14:09:17.594Z,83.60
2017-08-11T14:12:21.271Z,84.30
2017-08-11T14:15:25.039Z,84.00
2017-08-11T14:18:28.906Z,84.40
2017-08-11T14:21:32.670Z,84.80
2017-08-11T14:24:41.939Z,84.70
2017-08-11T14:27:45.623Z,82.70
2017-08-11T14:30:49.409Z,86.80
2017-08-11T14:33:53.088Z,85.60
2017-08-11T14:36:57.175Z,86.60
2017-08-11T14:40:00.957Z,87.50
2017-08-11T14:43:04.778Z,87.30
2017-08-11T14:46:08.450Z,89.00
2017-08-11T14:49:12.219Z,88.50
2017-08-11T14:52:15.880Z,88.00
2017-08-11T14:55:19.681Z,87.90
2017-08-11T14:58:23.367Z,86.80
2017-08-11T15:01:27.192Z,85.50
2017-08-11T15:04:33.232Z,86.60
2017-08-11T15:07:37.984Z,85.90
2017-08-11T15:10:42.834Z,85.90
2017-08-11T15:13:46.565Z,86.60
2017-08-11T15:16:51.358Z,86.30
2017-08-11T15:19:56.616Z,86.20
2017-08-11T15:23:00.406Z,85.80
2017-08-11T15:26:04.192Z,82.70
2017-08-11T15:29:07.920Z,84.90
2017-08-11T15:32:11.715Z,83.20
2017-08-11T15:35:15.523Z,86.50
2017-08-11T15:38:20.211Z,85.60
2017-08-11T15:41:23.957Z,85.70
2017-08-11T15:44:27.710Z,83.50
2017-08-11T15:47:31.422Z,83.70
2017-08-11T15:50:35.153Z,83.50
2017-08-11T15:53:38.865Z,84.10
2017-08-11T15:56:42.519Z,84.60
2017-08-11T15:59:46.248Z,84.40
2017-08-11T16:02:49.967Z,85.30
2017-08-11T16:05:54.688Z,85.30
2017-08-11T16:08:58.358Z,84.20
2017-08-11T16:12:02.145Z,84.40
2017-08-11T16:15:05.610Z,84.30
2017-08-11T16:18:09.362Z,84.00
2017-08-11T16:21:13.082Z,84.30
2017-08-11T16:24:16.879Z,82.80
2017-08-11T16:27:20.669Z,84.70
2017-08-11T16:30:24.530Z,84.50
2017-08-11T16:33:28.291Z,84.80
2017-08-11T16:36:32.114Z,83.20
2017-08-11T16:39:35.966Z,85.00
2017-08-11T16:42:39.633Z,86.40
2017-08-11T16:45:43.424Z,85.70
2017-08-11T16:48:47.174Z,84.60
2017-08-11T16:51:51.935Z,84.60
2017-08-11T16:54:55.719Z,84.00
2017-08-11T16:57:59.378Z,84.90
2017-08-11T17:01:03.182Z,83.50
2017-08-11T17:04:06.860Z,83.20
2017-08-11T17:07:10.611Z,82.70
2017-08-11T17:10:14.304Z,83.40
2017-08-11T17:13:18.174Z,83.90
2017-08-11T17:16:21.860Z,84.60
2017-08-11T17:19:25.663Z,84.00
2017-08-11T17:22:29.523Z,83.90
2017-08-11T17:25:33.206Z,84.20
2017-08-11T17:28:37.127Z,85.10
2017-08-11T17:31:44.263Z,84.00
2017-08-11T17:34:47.973Z,83.90
2017-08-11T17:37:55.662Z,84.30
2017-08-11T17:40:59.455Z,84.20
2017-08-11T17:44:03.230Z,84.60
2017-08-11T17:47:16.486Z,84.60
2017-08-11T17:50:20.838Z,84.60
2017-08-11T17:53:24.658Z,84.80
2017-08-11T17:56:28.410Z,85.30
2017-08-11T17:59:32.216Z,85.20
2017-08-11T18:02:35.890Z,85.10
2017-08-11T18:05:39.663Z,85.70
2017-08-11T18:08:43.432Z,86.20
2017-08-11T18:11:47.111Z,86.60
2017-08-11T18:14:50.859Z,86.20
2017-08-11T18:17:54.536Z,86.10
2017-08-11T18:20:58.278Z,86.20
2017-08-11T18:24:01.946Z,85.50
2017-08-11T18:27:05.784Z,86.00
2017-08-11T18:30:09.492Z,85.50
2017-08-11T18:33:13.262Z,86.30
2017-08-11T18:36:16.943Z,85.00
2017-08-11T18:39:20.520Z,86.20
2017-08-11T18:42:24.201Z,85.50
2017-08-11T18:45:27.957Z,85.80
2017-08-11T18:48:31.761Z,84.70
2017-08-11T18:51:35.525Z,85.40
2017-08-11T18:54:39.330Z,85.80
2017-08-11T18:57:43.039Z,85.20
2017-08-11T19:00:46.863Z,84.70
2017-08-11T19:03:50.564Z,85.20
2017-08-11T19:06:54.906Z,85.10
2017-08-11T19:09:58.625Z,84.60
2017-08-11T19:13:09.187Z,85.30
2017-08-11T19:16:13.012Z,84.90
2017-08-11T19:19:16.743Z,85.20
2017-08-11T19:22:20.585Z,85.20
2017-08-11T19:25:24.300Z,84.90
2017-08-11T19:28:28.104Z,84.90
2017-08-11T19:31:31.881Z,84.60
2017-08-11T19:34:35.617Z,84.70
2017-08-11T19:37:39.385Z,84.30
2017-08-11T19:40:43.085Z,84.90
2017-08-11T19:43:46.868Z,84.50
2017-08-11T19:46:52.274Z,84.30
2017-08-11T19:49:56.203Z,84.60
2017-08-11T19:53:01.896Z,84.30
2017-08-11T19:56:05.718Z,85.60
2017-08-11T19:59:09.547Z,85.20
2017-08-11T20:02:13.145Z,85.30
2017-08-11T20:05:16.912Z,84.90
2017-08-11T20:08:20.687Z,85.30
2017-08-11T20:11:24.389Z,85.10
2017-08-11T20:14:28.309Z,85.00
2017-08-11T20:17:32.073Z,84.40
2017-08-11T20:20:35.739Z,85.00
2017-08-11T20:23:39.518Z,84.70
2017-08-11T20:26:43.249Z,85.30
2017-08-11T20:29:46.907Z,84.60
2017-08-11T20:32:50.732Z,84.90
2017-08-11T20:35:55.540Z,84.70
2017-08-11T20:38:59.360Z,84.30
2017-08-11T20:42:03.057Z,85.30
2017-08-11T20:45:06.762Z,84.80
2017-08-11T20:48:10.499Z,85.00
2017-08-11T20:51:14.935Z,84.90
2017-08-11T20:54:18.361Z,84.80
2017-08-11T20:57:22.165Z,85.20
2017-08-11T21:00:26.674Z,83.90
2017-08-11T21:03:30.524Z,83.80
2017-08-11T21:06:34.487Z,84.80
2017-08-11T21:09:38.191Z,85.50
2017-08-11T21:12:41.860Z,85.80
2017-08-11T21:15:46.870Z,86.90
2017-08-11T21:18:51.521Z,87.40
2017-08-11T21:21:56.360Z,87.20
2017-08-11T21:25:00.085Z,87.70
2017-08-11T21:28:03.856Z,87.80
2017-08-11T21:31:07.572Z,87.90
2017-08-11T21:34:11.311Z,87.60
2017-08-11T21:37:15.011Z,88.40
2017-08-11T21:40:18.729Z,87.90
2017-08-11T21:43:22.391Z,87.80
2017-08-11T21:46:27.133Z,87.40
2017-08-11T21:49:30.667Z,87.00
2017-08-11T21:52:34.451Z,86.90
2017-08-11T21:55:38.126Z,86.90
2017-08-11T21:58:41.954Z,86.10
2017-08-11T22:01:45.756Z,86.40
2017-08-11T22:04:49.563Z,86.50
2017-08-11T22:07:53.225Z,86.50
2017-08-11T22:10:57.224Z,86.50
2017-08-11T22:14:00.958Z,86.40
2017-08-11T22:17:04.774Z,87.10
2017-08-11T22:20:08.470Z,86.40
2017-08-11T22:23:12.355Z,86.40
2017-08-11T22:26:16.152Z,86.80
2017-08-11T22:29:19.828Z,86.40
2017-08-11T22:32:23.632Z,86.40
2017-08-11T22:35:27.319Z,86.40
2017-08-11T22:38:31.103Z,86.50
2017-08-11T22:41:34.807Z,85.70
2017-08-11T22:44:38.591Z,85.50
2017-08-11T22:47:42.271Z,86.30
2017-08-11T22:50:46.069Z,86.10
2017-08-11T22:53:49.755Z,85.70
2017-08-11T22:56:53.591Z,85.20
2017-08-11T22:59:57.316Z,85.70
2017-08-11T23:03:01.112Z,85.70
2017-08-11T23:06:04.852Z,86.00
2017-08-11T23:09:08.612Z,85.30
2017-08-11T23:12:12.376Z,85.10
2017-08-11T23:15:16.180Z,85.60
2017-08-11T23:18:19.958Z,86.00
2017-08-11T23:21:23.619Z,86.10
2017-08-11T23:24:27.397Z,85.00
2017-08-11T23:27:31.226Z,85.40
2017-08-11T23:30:35.032Z,85.00
2017-08-11T23:33:38.812Z,84.50
2017-08-11T23:36:42.462Z,85.10
2017-08-11T23:39:46.272Z,85.00
2017-08-11T23:42:50.083Z,85.00
2017-08-11T23:45:53.858Z,84.40
2017-08-11T23:48:57.675Z,85.00
2017-08-11T23:52:01.457Z,84.20
2017-08-11T23:55:05.161Z,85.10
2017-08-11T23:58:08.932Z,85.20
